Kingston Norman Rogers Airport
CYGK : now visible

Airfield :











YOU CAN JOIN US ON...

 
LOGIN :

Register | Disclaimer

   EN    FR    IT 

 









Legend :    VFR   Marginal VFR   IFR   Intensive IFR   Very Intensive IFR
Visi :
Ceiling :
>= 8 km
>= 3000ft
5 to 8 km
1000 to 3000 ft
1500m to 5 km
500 to 1000 ft
800 to 1500m
200 to 500 ft
< 800m
< 200 ft
Symbols :   Thunderstorms  Fog  Heavy snow  Heavy precipitations  Wind > 20 kt






- Airport Elevation : 305 ft
- IATA code : YGK


CYGK - Kingston Norman Rogers

CURRENT METAR :
  • 090100Z 19006KT 15SM FEW050 SCT250 24/22 A2987 RMK CU1CI2 SLP117 DENSITY ALT 1500FT

EXPIRED METARs :
  • 090000Z 19005KT 15SM FEW050TCU FEW250 25/22 A2986 RMK TCU1CI1 SLP111 DENSITY ALT 1700FT
  • 082300Z 17008KT 15SM FEW050TCU FEW160 FEW250 27/22 A2986 RMK TCU1AC1CI1 AC TR SLP112 DENSITY ALT 1800FT

TAF TAF CYGK
Valid from the 08 at 20:00 until the 09 at 03:00 UTC


081943Z 0820/0903 18012KT P6SM SCT040
TEMPO 0820/0824 4SM -SHRA BR
PROB30 0820/0822 2SM +TSRA BR OVC030CB RMK NXT FCST WILL BE ISSUED AT 091145Z
CZYZ FIR / North America



MET'MAP, your aeronautical weather chart ! - Copyright ORBIFLY December 2007 - Disclaimer

ORBIFLY MET'MAP TEAM :

Programming & Development : Alexandra Zaïnal
Concept & original design : Baudouin d'Aumeries
Assistance for programming : Marc-Olivier Méhu
Technical & hardware support : Manuel Goepfert

Contact : metmap@orbifly.com




SOURCES & CREDITS :

   NOAA       Earth
Advisory